sensor_id;sensor_type;location;lat;lon;timestamp;P1;durP1;ratioP1;P2;durP2;ratioP2
60006;SDS011;45863;50.336;3.536;2023-03-05T00:02:21;16.23;;;8.27;;
60006;SDS011;45863;50.336;3.536;2023-03-05T00:04:47;20.17;;;8.80;;
60006;SDS011;45863;50.336;3.536;2023-03-05T00:07:12;16.40;;;9.02;;
60006;SDS011;45863;50.336;3.536;2023-03-05T00:09:38;17.58;;;8.30;;
60006;SDS011;45863;50.336;3.536;2023-03-05T00:12:03;19.42;;;10.43;;
60006;SDS011;45863;50.336;3.536;2023-03-05T00:14:29;19.05;;;8.55;;
60006;SDS011;45863;50.336;3.536;2023-03-05T00:16:54;16.43;;;9.63;;
60006;SDS011;45863;50.336;3.536;2023-03-05T00:19:19;19.77;;;9.43;;
60006;SDS011;45863;50.336;3.536;2023-03-05T00:21:44;18.38;;;9.63;;
60006;SDS011;45863;50.336;3.536;2023-03-05T00:24:13;20.75;;;10.45;;
60006;SDS011;45863;50.336;3.536;2023-03-05T00:26:40;16.20;;;7.33;;
60006;SDS011;45863;50.336;3.536;2023-03-05T00:29:06;18.95;;;9.75;;
60006;SDS011;45863;50.336;3.536;2023-03-05T00:31:32;19.27;;;10.73;;
60006;SDS011;45863;50.336;3.536;2023-03-05T00:33:59;21.48;;;10.38;;
60006;SDS011;45863;50.336;3.536;2023-03-05T00:36:25;25.70;;;11.07;;
60006;SDS011;45863;50.336;3.536;2023-03-05T00:38:51;28.25;;;12.07;;
60006;SDS011;45863;50.336;3.536;2023-03-05T00:41:16;23.70;;;11.82;;
60006;SDS011;45863;50.336;3.536;2023-03-05T00:43:42;27.20;;;12.32;;
60006;SDS011;45863;50.336;3.536;2023-03-05T00:46:07;23.70;;;12.07;;
60006;SDS011;45863;50.336;3.536;2023-03-05T00:48:32;29.58;;;12.73;;
60006;SDS011;45863;50.336;3.536;2023-03-05T00:50:57;26.15;;;12.05;;
60006;SDS011;45863;50.336;3.536;2023-03-05T00:53:22;27.67;;;13.65;;
60006;SDS011;45863;50.336;3.536;2023-03-05T00:55:48;27.33;;;13.48;;
60006;SDS011;45863;50.336;3.536;2023-03-05T00:58:13;28.02;;;12.93;;
60006;SDS011;45863;50.336;3.536;2023-03-05T01:00:39;23.60;;;12.27;;
60006;SDS011;45863;50.336;3.536;2023-03-05T01:03:04;25.35;;;13.55;;
60006;SDS011;45863;50.336;3.536;2023-03-05T01:05:29;23.60;;;12.40;;
60006;SDS011;45863;50.336;3.536;2023-03-05T01:07:55;24.27;;;12.35;;
60006;SDS011;45863;50.336;3.536;2023-03-05T01:10:21;21.75;;;12.25;;
60006;SDS011;45863;50.336;3.536;2023-03-05T01:12:47;23.13;;;13.18;;
60006;SDS011;45863;50.336;3.536;2023-03-05T01:15:13;21.65;;;11.98;;
60006;SDS011;45863;50.336;3.536;2023-03-05T01:17:38;22.35;;;11.32;;
60006;SDS011;45863;50.336;3.536;2023-03-05T01:20:04;24.25;;;10.30;;
60006;SDS011;45863;50.336;3.536;2023-03-05T01:22:29;22.35;;;11.43;;
60006;SDS011;45863;50.336;3.536;2023-03-05T01:24:55;18.42;;;9.93;;
60006;SDS011;45863;50.336;3.536;2023-03-05T01:27:20;19.13;;;9.73;;
60006;SDS011;45863;50.336;3.536;2023-03-05T01:29:45;19.23;;;9.65;;
60006;SDS011;45863;50.336;3.536;2023-03-05T01:32:10;16.58;;;9.05;;
60006;SDS011;45863;50.336;3.536;2023-03-05T01:34:36;17.20;;;8.32;;
60006;SDS011;45863;50.336;3.536;2023-03-05T01:37:01;15.00;;;8.18;;
60006;SDS011;45863;50.336;3.536;2023-03-05T01:39:26;17.70;;;8.27;;
60006;SDS011;45863;50.336;3.536;2023-03-05T01:41:52;17.35;;;8.02;;
60006;SDS011;45863;50.336;3.536;2023-03-05T01:44:21;16.40;;;8.73;;
60006;SDS011;45863;50.336;3.536;2023-03-05T01:46:47;18.77;;;8.90;;
60006;SDS011;45863;50.336;3.536;2023-03-05T01:51:48;22.70;;;8.88;;
60006;SDS011;45863;50.336;3.536;2023-03-05T01:54:16;14.85;;;8.07;;
60006;SDS011;45863;50.336;3.536;2023-03-05T01:56:42;14.45;;;7.30;;
60006;SDS011;45863;50.336;3.536;2023-03-05T01:59:08;17.55;;;8.55;;
60006;SDS011;45863;50.336;3.536;2023-03-05T02:01:45;15.45;;;7.75;;
60006;SDS011;45863;50.336;3.536;2023-03-05T02:04:13;14.20;;;8.18;;
60006;SDS011;45863;50.336;3.536;2023-03-05T02:06:39;20.85;;;9.00;;
60006;SDS011;45863;50.336;3.536;2023-03-05T02:09:05;16.90;;;9.35;;
60006;SDS011;45863;50.336;3.536;2023-03-05T02:11:31;17.20;;;9.25;;
60006;SDS011;45863;50.336;3.536;2023-03-05T02:13:56;15.75;;;8.25;;
60006;SDS011;45863;50.336;3.536;2023-03-05T02:16:22;15.43;;;8.65;;
60006;SDS011;45863;50.336;3.536;2023-03-05T02:18:47;13.57;;;7.97;;
60006;SDS011;45863;50.336;3.536;2023-03-05T02:21:12;18.20;;;8.93;;
60006;SDS011;45863;50.336;3.536;2023-03-05T02:23:38;17.20;;;9.02;;
60006;SDS011;45863;50.336;3.536;2023-03-05T02:26:04;15.50;;;8.85;;
60006;SDS011;45863;50.336;3.536;2023-03-05T02:28:31;19.90;;;10.65;;
60006;SDS011;45863;50.336;3.536;2023-03-05T02:30:58;22.85;;;10.15;;
60006;SDS011;45863;50.336;3.536;2023-03-05T02:33:24;16.23;;;9.75;;
60006;SDS011;45863;50.336;3.536;2023-03-05T02:35:49;17.15;;;10.02;;
60006;SDS011;45863;50.336;3.536;2023-03-05T02:38:16;18.92;;;10.07;;
60006;SDS011;45863;50.336;3.536;2023-03-05T02:40:41;17.92;;;9.45;;
60006;SDS011;45863;50.336;3.536;2023-03-05T02:43:06;21.00;;;10.77;;
60006;SDS011;45863;50.336;3.536;2023-03-05T02:45:32;22.20;;;12.02;;
60006;SDS011;45863;50.336;3.536;2023-03-05T02:47:57;24.70;;;14.07;;
60006;SDS011;45863;50.336;3.536;2023-03-05T02:50:22;25.10;;;14.60;;
60006;SDS011;45863;50.336;3.536;2023-03-05T02:52:48;29.17;;;16.05;;
60006;SDS011;45863;50.336;3.536;2023-03-05T02:55:13;30.83;;;16.80;;
60006;SDS011;45863;50.336;3.536;2023-03-05T02:57:39;32.95;;;18.35;;
60006;SDS011;45863;50.336;3.536;2023-03-05T03:00:04;32.93;;;18.70;;
60006;SDS011;45863;50.336;3.536;2023-03-05T03:02:29;28.15;;;16.38;;
60006;SDS011;45863;50.336;3.536;2023-03-05T03:04:55;28.70;;;16.42;;
60006;SDS011;45863;50.336;3.536;2023-03-05T03:07:20;28.98;;;17.08;;
60006;SDS011;45863;50.336;3.536;2023-03-05T03:09:45;29.80;;;16.33;;
60006;SDS011;45863;50.336;3.536;2023-03-05T03:12:11;31.50;;;18.65;;
60006;SDS011;45863;50.336;3.536;2023-03-05T03:14:37;29.27;;;17.45;;
60006;SDS011;45863;50.336;3.536;2023-03-05T03:17:13;30.02;;;16.13;;
60006;SDS011;45863;50.336;3.536;2023-03-05T03:19:39;29.92;;;16.35;;
60006;SDS011;45863;50.336;3.536;2023-03-05T03:22:05;33.05;;;17.35;;
60006;SDS011;45863;50.336;3.536;2023-03-05T03:24:31;36.92;;;19.30;;
60006;SDS011;45863;50.336;3.536;2023-03-05T03:26:56;31.02;;;18.15;;
60006;SDS011;45863;50.336;3.536;2023-03-05T03:29:22;30.42;;;17.38;;
60006;SDS011;45863;50.336;3.536;2023-03-05T03:31:47;29.58;;;16.90;;
60006;SDS011;45863;50.336;3.536;2023-03-05T03:34:13;33.90;;;19.02;;
60006;SDS011;45863;50.336;3.536;2023-03-05T03:36:40;34.83;;;18.27;;
60006;SDS011;45863;50.336;3.536;2023-03-05T03:39:05;32.55;;;18.90;;
60006;SDS011;45863;50.336;3.536;2023-03-05T03:41:31;35.47;;;19.98;;
60006;SDS011;45863;50.336;3.536;2023-03-05T03:43:57;38.78;;;20.73;;
60006;SDS011;45863;50.336;3.536;2023-03-05T03:46:22;29.35;;;17.63;;
60006;SDS011;45863;50.336;3.536;2023-03-05T03:48:50;31.33;;;18.88;;
60006;SDS011;45863;50.336;3.536;2023-03-05T03:51:15;29.40;;;17.80;;
60006;SDS011;45863;50.336;3.536;2023-03-05T03:53:40;28.25;;;16.63;;
60006;SDS011;45863;50.336;3.536;2023-03-05T03:56:06;25.88;;;16.15;;
60006;SDS011;45863;50.336;3.536;2023-03-05T03:58:31;26.38;;;16.05;;
60006;SDS011;45863;50.336;3.536;2023-03-05T04:00:56;27.15;;;16.17;;
60006;SDS011;45863;50.336;3.536;2023-03-05T04:03:22;29.17;;;17.08;;
60006;SDS011;45863;50.336;3.536;2023-03-05T04:05:47;30.08;;;17.75;;
60006;SDS011;45863;50.336;3.536;2023-03-05T04:08:12;31.20;;;17.10;;
60006;SDS011;45863;50.336;3.536;2023-03-05T04:10:37;31.65;;;17.10;;
60006;SDS011;45863;50.336;3.536;2023-03-05T04:13:03;28.17;;;17.42;;
60006;SDS011;45863;50.336;3.536;2023-03-05T04:15:29;28.23;;;16.83;;
60006;SDS011;45863;50.336;3.536;2023-03-05T04:17:54;25.80;;;16.00;;
60006;SDS011;45863;50.336;3.536;2023-03-05T04:20:19;33.58;;;16.00;;
60006;SDS011;45863;50.336;3.536;2023-03-05T04:22:45;28.10;;;15.65;;
60006;SDS011;45863;50.336;3.536;2023-03-05T04:25:10;26.08;;;16.65;;
60006;SDS011;45863;50.336;3.536;2023-03-05T04:27:35;29.33;;;16.35;;
60006;SDS011;45863;50.336;3.536;2023-03-05T04:30:04;29.65;;;17.08;;
60006;SDS011;45863;50.336;3.536;2023-03-05T04:32:29;25.83;;;15.25;;
60006;SDS011;45863;50.336;3.536;2023-03-05T04:34:55;27.63;;;16.52;;
60006;SDS011;45863;50.336;3.536;2023-03-05T04:37:21;28.08;;;16.52;;
60006;SDS011;45863;50.336;3.536;2023-03-05T04:39:46;28.25;;;16.10;;
60006;SDS011;45863;50.336;3.536;2023-03-05T04:42:11;28.50;;;16.33;;
60006;SDS011;45863;50.336;3.536;2023-03-05T04:44:37;31.63;;;16.70;;
60006;SDS011;45863;50.336;3.536;2023-03-05T04:47:03;27.33;;;15.93;;
60006;SDS011;45863;50.336;3.536;2023-03-05T04:49:28;29.55;;;16.13;;
60006;SDS011;45863;50.336;3.536;2023-03-05T04:51:53;28.27;;;16.98;;
60006;SDS011;45863;50.336;3.536;2023-03-05T04:54:18;30.45;;;17.02;;
60006;SDS011;45863;50.336;3.536;2023-03-05T04:56:44;27.85;;;16.90;;
60006;SDS011;45863;50.336;3.536;2023-03-05T04:59:09;31.15;;;16.73;;
60006;SDS011;45863;50.336;3.536;2023-03-05T05:01:34;30.10;;;16.70;;
60006;SDS011;45863;50.336;3.536;2023-03-05T05:04:00;28.42;;;16.40;;
60006;SDS011;45863;50.336;3.536;2023-03-05T05:06:25;29.42;;;17.65;;
60006;SDS011;45863;50.336;3.536;2023-03-05T05:08:50;28.88;;;17.10;;
60006;SDS011;45863;50.336;3.536;2023-03-05T05:11:15;32.15;;;17.20;;
60006;SDS011;45863;50.336;3.536;2023-03-05T05:13:42;30.67;;;16.58;;
60006;SDS011;45863;50.336;3.536;2023-03-05T05:16:07;27.48;;;15.48;;
60006;SDS011;45863;50.336;3.536;2023-03-05T05:18:32;29.63;;;18.17;;
60006;SDS011;45863;50.336;3.536;2023-03-05T05:20:58;29.77;;;17.85;;
60006;SDS011;45863;50.336;3.536;2023-03-05T05:23:23;31.42;;;17.80;;
60006;SDS011;45863;50.336;3.536;2023-03-05T05:25:58;33.50;;;19.80;;
60006;SDS011;45863;50.336;3.536;2023-03-05T05:28:24;32.90;;;18.20;;
60006;SDS011;45863;50.336;3.536;2023-03-05T05:30:49;38.05;;;19.15;;
60006;SDS011;45863;50.336;3.536;2023-03-05T05:33:14;30.05;;;17.67;;
60006;SDS011;45863;50.336;3.536;2023-03-05T05:35:39;35.22;;;20.00;;
60006;SDS011;45863;50.336;3.536;2023-03-05T05:38:05;39.45;;;20.98;;
60006;SDS011;45863;50.336;3.536;2023-03-05T05:40:30;46.72;;;24.70;;
60006;SDS011;45863;50.336;3.536;2023-03-05T05:42:55;61.28;;;30.80;;
60006;SDS011;45863;50.336;3.536;2023-03-05T05:45:20;48.50;;;26.20;;
60006;SDS011;45863;50.336;3.536;2023-03-05T05:47:46;34.55;;;19.48;;
60006;SDS011;45863;50.336;3.536;2023-03-05T05:50:11;38.78;;;20.17;;
60006;SDS011;45863;50.336;3.536;2023-03-05T05:52:36;36.20;;;19.38;;
60006;SDS011;45863;50.336;3.536;2023-03-05T05:55:01;36.13;;;19.35;;
60006;SDS011;45863;50.336;3.536;2023-03-05T05:57:27;35.88;;;19.98;;
60006;SDS011;45863;50.336;3.536;2023-03-05T05:59:52;37.33;;;20.27;;
60006;SDS011;45863;50.336;3.536;2023-03-05T06:02:17;42.95;;;21.30;;
60006;SDS011;45863;50.336;3.536;2023-03-05T06:04:42;35.83;;;20.13;;
60006;SDS011;45863;50.336;3.536;2023-03-05T06:07:08;36.53;;;18.75;;
60006;SDS011;45863;50.336;3.536;2023-03-05T06:09:36;31.38;;;18.50;;
60006;SDS011;45863;50.336;3.536;2023-03-05T06:12:01;36.30;;;18.55;;
60006;SDS011;45863;50.336;3.536;2023-03-05T06:14:26;35.72;;;18.38;;
60006;SDS011;45863;50.336;3.536;2023-03-05T06:16:52;34.73;;;17.67;;
60006;SDS011;45863;50.336;3.536;2023-03-05T06:19:17;35.67;;;18.60;;
60006;SDS011;45863;50.336;3.536;2023-03-05T06:21:42;42.47;;;24.40;;
60006;SDS011;45863;50.336;3.536;2023-03-05T06:24:08;41.17;;;21.25;;
60006;SDS011;45863;50.336;3.536;2023-03-05T06:26:33;45.88;;;24.05;;
60006;SDS011;45863;50.336;3.536;2023-03-05T06:28:59;35.13;;;18.45;;
60006;SDS011;45863;50.336;3.536;2023-03-05T06:31:25;36.20;;;17.70;;
60006;SDS011;45863;50.336;3.536;2023-03-05T06:33:50;30.73;;;15.45;;
60006;SDS011;45863;50.336;3.536;2023-03-05T06:36:17;25.15;;;14.10;;
60006;SDS011;45863;50.336;3.536;2023-03-05T06:38:43;25.58;;;14.13;;
60006;SDS011;45863;50.336;3.536;2023-03-05T06:41:09;31.95;;;15.23;;
60006;SDS011;45863;50.336;3.536;2023-03-05T06:43:36;31.77;;;16.40;;
60006;SDS011;45863;50.336;3.536;2023-03-05T06:46:06;30.75;;;15.15;;
60006;SDS011;45863;50.336;3.536;2023-03-05T06:48:32;31.38;;;16.50;;
60006;SDS011;45863;50.336;3.536;2023-03-05T06:50:57;32.42;;;16.67;;
60006;SDS011;45863;50.336;3.536;2023-03-05T06:53:23;32.50;;;17.05;;
60006;SDS011;45863;50.336;3.536;2023-03-05T06:55:48;30.50;;;16.08;;
60006;SDS011;45863;50.336;3.536;2023-03-05T06:58:14;27.92;;;15.85;;
60006;SDS011;45863;50.336;3.536;2023-03-05T07:00:39;29.35;;;15.93;;
60006;SDS011;45863;50.336;3.536;2023-03-05T07:03:04;29.08;;;15.52;;
60006;SDS011;45863;50.336;3.536;2023-03-05T07:05:29;30.58;;;16.88;;
60006;SDS011;45863;50.336;3.536;2023-03-05T07:07:55;29.52;;;16.80;;
60006;SDS011;45863;50.336;3.536;2023-03-05T07:10:20;30.65;;;17.80;;
60006;SDS011;45863;50.336;3.536;2023-03-05T07:12:45;32.35;;;17.30;;
60006;SDS011;45863;50.336;3.536;2023-03-05T07:15:10;33.90;;;17.55;;
60006;SDS011;45863;50.336;3.536;2023-03-05T07:17:36;37.65;;;20.08;;
60006;SDS011;45863;50.336;3.536;2023-03-05T07:20:01;36.65;;;18.88;;
60006;SDS011;45863;50.336;3.536;2023-03-05T07:22:28;34.80;;;20.83;;
60006;SDS011;45863;50.336;3.536;2023-03-05T07:24:53;38.50;;;21.05;;
60006;SDS011;45863;50.336;3.536;2023-03-05T07:27:18;34.75;;;19.40;;
60006;SDS011;45863;50.336;3.536;2023-03-05T07:29:44;33.35;;;18.50;;
60006;SDS011;45863;50.336;3.536;2023-03-05T07:32:09;33.08;;;19.05;;
60006;SDS011;45863;50.336;3.536;2023-03-05T07:34:35;35.60;;;18.58;;
60006;SDS011;45863;50.336;3.536;2023-03-05T07:37:01;32.88;;;18.63;;
60006;SDS011;45863;50.336;3.536;2023-03-05T07:39:26;35.90;;;20.13;;
60006;SDS011;45863;50.336;3.536;2023-03-05T07:41:51;42.78;;;22.98;;
60006;SDS011;45863;50.336;3.536;2023-03-05T07:44:16;44.80;;;23.30;;
60006;SDS011;45863;50.336;3.536;2023-03-05T07:46:42;40.40;;;22.83;;
60006;SDS011;45863;50.336;3.536;2023-03-05T07:49:08;42.90;;;23.58;;
60006;SDS011;45863;50.336;3.536;2023-03-05T07:51:33;41.40;;;22.75;;
60006;SDS011;45863;50.336;3.536;2023-03-05T07:53:59;38.38;;;21.65;;
60006;SDS011;45863;50.336;3.536;2023-03-05T07:58:50;36.63;;;21.45;;
60006;SDS011;45863;50.336;3.536;2023-03-05T08:01:15;35.70;;;19.38;;
60006;SDS011;45863;50.336;3.536;2023-03-05T08:03:41;31.92;;;18.63;;
60006;SDS011;45863;50.336;3.536;2023-03-05T08:06:06;35.20;;;19.48;;
60006;SDS011;45863;50.336;3.536;2023-03-05T08:08:32;28.88;;;16.88;;
60006;SDS011;45863;50.336;3.536;2023-03-05T08:11:02;27.95;;;17.05;;
60006;SDS011;45863;50.336;3.536;2023-03-05T08:13:27;35.70;;;20.05;;
60006;SDS011;45863;50.336;3.536;2023-03-05T08:15:52;32.28;;;19.52;;
60006;SDS011;45863;50.336;3.536;2023-03-05T08:18:17;37.67;;;21.65;;
60006;SDS011;45863;50.336;3.536;2023-03-05T08:20:43;35.40;;;20.63;;
60006;SDS011;45863;50.336;3.536;2023-03-05T08:23:08;41.90;;;24.50;;
60006;SDS011;45863;50.336;3.536;2023-03-05T08:25:34;41.17;;;22.95;;
60006;SDS011;45863;50.336;3.536;2023-03-05T08:27:59;39.17;;;21.63;;
60006;SDS011;45863;50.336;3.536;2023-03-05T08:30:24;40.97;;;21.42;;
60006;SDS011;45863;50.336;3.536;2023-03-05T08:32:51;39.35;;;19.27;;
60006;SDS011;45863;50.336;3.536;2023-03-05T08:35:16;33.95;;;18.45;;
60006;SDS011;45863;50.336;3.536;2023-03-05T08:37:41;27.98;;;15.93;;
60006;SDS011;45863;50.336;3.536;2023-03-05T08:40:07;24.38;;;13.68;;
60006;SDS011;45863;50.336;3.536;2023-03-05T08:42:32;24.27;;;14.82;;
60006;SDS011;45863;50.336;3.536;2023-03-05T08:44:57;27.50;;;15.48;;
60006;SDS011;45863;50.336;3.536;2023-03-05T08:47:23;26.60;;;15.60;;
60006;SDS011;45863;50.336;3.536;2023-03-05T08:49:50;26.25;;;14.70;;
60006;SDS011;45863;50.336;3.536;2023-03-05T08:52:19;27.00;;;14.98;;
60006;SDS011;45863;50.336;3.536;2023-03-05T08:54:44;23.73;;;15.30;;
60006;SDS011;45863;50.336;3.536;2023-03-05T08:57:09;25.53;;;15.93;;
60006;SDS011;45863;50.336;3.536;2023-03-05T08:59:35;22.13;;;14.80;;
60006;SDS011;45863;50.336;3.536;2023-03-05T09:02:00;21.73;;;13.13;;
60006;SDS011;45863;50.336;3.536;2023-03-05T09:04:25;19.25;;;11.30;;
60006;SDS011;45863;50.336;3.536;2023-03-05T09:06:51;19.35;;;11.55;;
60006;SDS011;45863;50.336;3.536;2023-03-05T09:09:16;20.17;;;12.27;;
60006;SDS011;45863;50.336;3.536;2023-03-05T09:11:44;17.70;;;11.50;;
60006;SDS011;45863;50.336;3.536;2023-03-05T09:14:10;16.48;;;11.50;;
60006;SDS011;45863;50.336;3.536;2023-03-05T09:16:35;17.90;;;10.43;;
60006;SDS011;45863;50.336;3.536;2023-03-05T09:19:02;16.20;;;8.80;;
60006;SDS011;45863;50.336;3.536;2023-03-05T09:21:27;11.68;;;7.90;;
60006;SDS011;45863;50.336;3.536;2023-03-05T09:23:52;13.25;;;7.97;;
60006;SDS011;45863;50.336;3.536;2023-03-05T09:26:23;11.95;;;7.53;;
60006;SDS011;45863;50.336;3.536;2023-03-05T09:28:50;11.52;;;6.57;;
60006;SDS011;45863;50.336;3.536;2023-03-05T09:31:15;10.10;;;6.35;;
60006;SDS011;45863;50.336;3.536;2023-03-05T09:33:40;10.77;;;5.80;;
60006;SDS011;45863;50.336;3.536;2023-03-05T09:36:15;9.85;;;4.68;;
60006;SDS011;45863;50.336;3.536;2023-03-05T09:38:41;9.68;;;4.25;;
60006;SDS011;45863;50.336;3.536;2023-03-05T09:41:13;6.60;;;2.80;;
60006;SDS011;45863;50.336;3.536;2023-03-05T09:43:47;7.20;;;4.55;;
60006;SDS011;45863;50.336;3.536;2023-03-05T09:46:25;6.40;;;3.42;;
60006;SDS011;45863;50.336;3.536;2023-03-05T09:48:55;7.07;;;3.70;;
60006;SDS011;45863;50.336;3.536;2023-03-05T09:51:26;7.22;;;3.20;;
60006;SDS011;45863;50.336;3.536;2023-03-05T09:54:03;7.28;;;4.00;;
60006;SDS011;45863;50.336;3.536;2023-03-05T09:56:40;7.88;;;3.55;;
60006;SDS011;45863;50.336;3.536;2023-03-05T09:59:19;8.77;;;4.80;;
60006;SDS011;45863;50.336;3.536;2023-03-05T10:01:47;8.50;;;3.90;;
60006;SDS011;45863;50.336;3.536;2023-03-05T10:07:22;7.93;;;3.83;;
60006;SDS011;45863;50.336;3.536;2023-03-05T10:09:30;5.82;;;2.10;;
60006;SDS011;45863;50.336;3.536;2023-03-05T10:12:05;6.30;;;2.88;;
60006;SDS011;45863;50.336;3.536;2023-03-05T10:14:32;4.45;;;1.88;;
60006;SDS011;45863;50.336;3.536;2023-03-05T10:16:59;5.75;;;2.53;;
60006;SDS011;45863;50.336;3.536;2023-03-05T10:27:18;6.90;;;3.10;;
60006;SDS011;45863;50.336;3.536;2023-03-05T10:29:48;7.80;;;3.28;;
60006;SDS011;45863;50.336;3.536;2023-03-05T10:42:49;7.43;;;2.53;;
60006;SDS011;45863;50.336;3.536;2023-03-05T10:48:10;6.88;;;3.38;;
60006;SDS011;45863;50.336;3.536;2023-03-05T10:50:38;4.15;;;2.08;;
60006;SDS011;45863;50.336;3.536;2023-03-05T10:55:41;8.43;;;3.67;;
60006;SDS011;45863;50.336;3.536;2023-03-05T10:58:11;5.63;;;2.80;;
60006;SDS011;45863;50.336;3.536;2023-03-05T11:00:36;5.50;;;2.58;;
60006;SDS011;45863;50.336;3.536;2023-03-05T11:03:03;6.78;;;2.90;;
60006;SDS011;45863;50.336;3.536;2023-03-05T11:05:38;6.55;;;2.78;;
60006;SDS011;45863;50.336;3.536;2023-03-05T11:08:18;4.50;;;2.50;;
60006;SDS011;45863;50.336;3.536;2023-03-05T11:10:46;5.93;;;2.72;;
60006;SDS011;45863;50.336;3.536;2023-03-05T11:13:24;9.57;;;2.45;;
60006;SDS011;45863;50.336;3.536;2023-03-05T11:16:03;7.78;;;2.67;;
60006;SDS011;45863;50.336;3.536;2023-03-05T11:18:29;6.07;;;2.78;;
60006;SDS011;45863;50.336;3.536;2023-03-05T11:21:06;5.65;;;2.53;;
60006;SDS011;45863;50.336;3.536;2023-03-05T11:23:32;6.55;;;2.75;;
60006;SDS011;45863;50.336;3.536;2023-03-05T11:26:04;6.78;;;2.90;;
60006;SDS011;45863;50.336;3.536;2023-03-05T11:33:29;6.68;;;2.58;;
60006;SDS011;45863;50.336;3.536;2023-03-05T11:41:22;7.93;;;3.80;;
60006;SDS011;45863;50.336;3.536;2023-03-05T11:43:48;7.43;;;3.70;;
60006;SDS011;45863;50.336;3.536;2023-03-05T11:46:14;7.55;;;3.72;;
60006;SDS011;45863;50.336;3.536;2023-03-05T11:48:40;7.28;;;4.13;;
60006;SDS011;45863;50.336;3.536;2023-03-05T11:51:15;8.38;;;4.38;;
60006;SDS011;45863;50.336;3.536;2023-03-05T11:53:42;10.35;;;4.63;;
60006;SDS011;45863;50.336;3.536;2023-03-05T12:01:22;11.82;;;5.43;;
60006;SDS011;45863;50.336;3.536;2023-03-05T12:03:48;10.07;;;5.57;;
60006;SDS011;45863;50.336;3.536;2023-03-05T12:08:40;9.67;;;5.27;;
60006;SDS011;45863;50.336;3.536;2023-03-05T12:11:17;8.98;;;5.50;;
60006;SDS011;45863;50.336;3.536;2023-03-05T12:13:45;12.07;;;7.05;;
60006;SDS011;45863;50.336;3.536;2023-03-05T12:18:51;9.23;;;5.82;;
60006;SDS011;45863;50.336;3.536;2023-03-05T12:21:32;12.30;;;6.43;;
60006;SDS011;45863;50.336;3.536;2023-03-05T12:23:58;6.90;;;3.45;;
60006;SDS011;45863;50.336;3.536;2023-03-05T12:29:26;12.35;;;5.45;;
60006;SDS011;45863;50.336;3.536;2023-03-05T12:31:52;12.05;;;4.63;;
60006;SDS011;45863;50.336;3.536;2023-03-05T12:34:45;11.68;;;6.68;;
60006;SDS011;45863;50.336;3.536;2023-03-05T12:37:12;10.80;;;5.55;;
60006;SDS011;45863;50.336;3.536;2023-03-05T12:39:41;8.90;;;3.97;;
60006;SDS011;45863;50.336;3.536;2023-03-05T12:47:37;8.35;;;4.72;;
60006;SDS011;45863;50.336;3.536;2023-03-05T12:50:03;10.02;;;4.93;;
60006;SDS011;45863;50.336;3.536;2023-03-05T12:52:29;9.43;;;4.82;;
60006;SDS011;45863;50.336;3.536;2023-03-05T12:54:56;9.63;;;4.55;;
60006;SDS011;45863;50.336;3.536;2023-03-05T12:57:23;10.30;;;5.35;;
60006;SDS011;45863;50.336;3.536;2023-03-05T13:04:44;8.48;;;4.60;;
60006;SDS011;45863;50.336;3.536;2023-03-05T13:07:13;9.30;;;5.05;;
60006;SDS011;45863;50.336;3.536;2023-03-05T13:09:39;7.53;;;4.43;;
60006;SDS011;45863;50.336;3.536;2023-03-05T13:12:08;9.10;;;5.05;;
60006;SDS011;45863;50.336;3.536;2023-03-05T13:14:45;10.63;;;5.07;;
60006;SDS011;45863;50.336;3.536;2023-03-05T13:17:34;8.50;;;4.65;;
60006;SDS011;45863;50.336;3.536;2023-03-05T13:20:00;14.55;;;5.03;;
60006;SDS011;45863;50.336;3.536;2023-03-05T13:22:26;11.80;;;5.88;;
60006;SDS011;45863;50.336;3.536;2023-03-05T13:25:25;10.48;;;4.97;;
60006;SDS011;45863;50.336;3.536;2023-03-05T13:27:45;9.82;;;5.38;;
60006;SDS011;45863;50.336;3.536;2023-03-05T13:30:23;9.40;;;5.30;;
60006;SDS011;45863;50.336;3.536;2023-03-05T13:32:50;9.70;;;5.30;;
60006;SDS011;45863;50.336;3.536;2023-03-05T13:35:16;10.48;;;5.20;;
60006;SDS011;45863;50.336;3.536;2023-03-05T13:37:42;10.38;;;5.68;;
60006;SDS011;45863;50.336;3.536;2023-03-05T13:40:21;11.57;;;5.57;;
60006;SDS011;45863;50.336;3.536;2023-03-05T13:42:46;11.75;;;6.18;;
60006;SDS011;45863;50.336;3.536;2023-03-05T13:45:22;11.50;;;6.10;;
60006;SDS011;45863;50.336;3.536;2023-03-05T13:47:58;12.77;;;6.25;;
60006;SDS011;45863;50.336;3.536;2023-03-05T13:50:25;11.88;;;5.90;;
60006;SDS011;45863;50.336;3.536;2023-03-05T13:52:51;11.98;;;5.57;;
60006;SDS011;45863;50.336;3.536;2023-03-05T13:55:16;11.35;;;5.10;;
60006;SDS011;45863;50.336;3.536;2023-03-05T14:02:51;11.13;;;5.72;;
60006;SDS011;45863;50.336;3.536;2023-03-05T14:05:17;11.15;;;5.78;;
60006;SDS011;45863;50.336;3.536;2023-03-05T14:07:42;10.27;;;5.30;;
60006;SDS011;45863;50.336;3.536;2023-03-05T14:12:51;9.53;;;5.00;;
60006;SDS011;45863;50.336;3.536;2023-03-05T14:15:24;8.82;;;4.72;;
60006;SDS011;45863;50.336;3.536;2023-03-05T14:17:50;9.73;;;4.55;;
60006;SDS011;45863;50.336;3.536;2023-03-05T14:22:45;9.32;;;4.95;;
60006;SDS011;45863;50.336;3.536;2023-03-05T14:27:49;10.13;;;4.82;;
60006;SDS011;45863;50.336;3.536;2023-03-05T14:30:15;8.60;;;5.43;;
60006;SDS011;45863;50.336;3.536;2023-03-05T14:32:42;7.97;;;4.25;;
60006;SDS011;45863;50.336;3.536;2023-03-05T14:35:15;7.30;;;4.30;;
60006;SDS011;45863;50.336;3.536;2023-03-05T14:37:41;9.30;;;4.43;;
60006;SDS011;45863;50.336;3.536;2023-03-05T14:42:48;8.73;;;4.63;;
60006;SDS011;45863;50.336;3.536;2023-03-05T14:45:15;10.25;;;4.30;;
60006;SDS011;45863;50.336;3.536;2023-03-05T14:47:41;8.70;;;4.40;;
60006;SDS011;45863;50.336;3.536;2023-03-05T14:50:07;7.68;;;3.88;;
60006;SDS011;45863;50.336;3.536;2023-03-05T14:52:32;8.93;;;4.43;;
60006;SDS011;45863;50.336;3.536;2023-03-05T14:54:58;10.60;;;4.65;;
60006;SDS011;45863;50.336;3.536;2023-03-05T14:57:25;9.32;;;4.18;;
60006;SDS011;45863;50.336;3.536;2023-03-05T14:59:51;6.80;;;3.60;;
60006;SDS011;45863;50.336;3.536;2023-03-05T15:02:18;9.65;;;3.70;;
60006;SDS011;45863;50.336;3.536;2023-03-05T15:04:43;7.63;;;3.30;;
60006;SDS011;45863;50.336;3.536;2023-03-05T15:07:17;9.07;;;3.38;;
60006;SDS011;45863;50.336;3.536;2023-03-05T15:09:44;8.00;;;3.65;;
60006;SDS011;45863;50.336;3.536;2023-03-05T15:12:10;7.15;;;3.30;;
60006;SDS011;45863;50.336;3.536;2023-03-05T15:14:36;6.93;;;3.38;;
60006;SDS011;45863;50.336;3.536;2023-03-05T15:17:15;6.18;;;3.45;;
60006;SDS011;45863;50.336;3.536;2023-03-05T15:19:45;9.30;;;3.60;;
60006;SDS011;45863;50.336;3.536;2023-03-05T15:22:11;7.18;;;3.20;;
60006;SDS011;45863;50.336;3.536;2023-03-05T15:24:36;6.68;;;3.50;;
60006;SDS011;45863;50.336;3.536;2023-03-05T15:27:02;12.85;;;4.00;;
60006;SDS011;45863;50.336;3.536;2023-03-05T15:29:27;9.98;;;3.60;;
60006;SDS011;45863;50.336;3.536;2023-03-05T15:31:53;8.27;;;3.28;;
60006;SDS011;45863;50.336;3.536;2023-03-05T15:34:18;9.10;;;4.32;;
60006;SDS011;45863;50.336;3.536;2023-03-05T15:36:43;10.50;;;4.50;;
60006;SDS011;45863;50.336;3.536;2023-03-05T15:39:08;9.75;;;4.45;;
60006;SDS011;45863;50.336;3.536;2023-03-05T15:41:34;10.15;;;3.90;;
60006;SDS011;45863;50.336;3.536;2023-03-05T15:43:59;7.47;;;4.10;;
60006;SDS011;45863;50.336;3.536;2023-03-05T15:46:24;11.75;;;4.05;;
60006;SDS011;45863;50.336;3.536;2023-03-05T15:48:49;8.50;;;4.20;;
60006;SDS011;45863;50.336;3.536;2023-03-05T15:51:15;7.78;;;4.22;;